createdAt,value
2023-05-16T00:00:09.081Z,4.68
2023-05-16T00:02:37.923Z,5.03
2023-05-16T00:05:06.231Z,5.20
2023-05-16T00:07:33.845Z,4.90
2023-05-16T00:10:01.434Z,4.65
2023-05-16T00:12:29.373Z,5.05
2023-05-16T00:14:57.112Z,5.20
2023-05-16T00:17:24.906Z,5.35
2023-05-16T00:19:58.195Z,4.80
2023-05-16T00:22:25.626Z,5.28
2023-05-16T00:24:53.119Z,5.28
2023-05-16T00:27:21.581Z,4.90
2023-05-16T00:29:49.865Z,5.00
2023-05-16T00:32:18.854Z,4.90
2023-05-16T00:34:46.439Z,5.03
2023-05-16T00:37:14.477Z,5.20
2023-05-16T00:39:41.976Z,5.30
2023-05-16T00:42:09.301Z,5.25
2023-05-16T00:44:39.300Z,5.65
2023-05-16T00:47:06.896Z,5.53
2023-05-16T00:49:34.218Z,5.22
2023-05-16T00:52:01.531Z,4.85
2023-05-16T00:54:29.316Z,5.20
2023-05-16T00:56:56.955Z,5.60
2023-05-16T00:59:24.836Z,6.05
2023-05-16T01:01:52.280Z,5.13
2023-05-16T01:04:20.883Z,4.90
2023-05-16T01:06:48.226Z,5.40
2023-05-16T01:09:15.636Z,5.18
2023-05-16T01:12:07.304Z,5.57
2023-05-16T01:14:43.726Z,5.53
2023-05-16T01:17:32.898Z,5.22
2023-05-16T01:20:06.554Z,5.40
2023-05-16T01:22:48.834Z,5.35
2023-05-16T01:25:27.943Z,5.88
2023-05-16T01:27:56.406Z,5.80
2023-05-16T01:30:23.770Z,5.78
2023-05-16T01:32:51.410Z,6.03
2023-05-16T01:35:18.892Z,6.10
2023-05-16T01:37:58.101Z,5.45
2023-05-16T01:41:00.924Z,5.80
2023-05-16T01:43:34.644Z,5.68
2023-05-16T01:46:21.267Z,6.28
2023-05-16T01:49:02.184Z,6.20
2023-05-16T01:51:30.708Z,5.65
2023-05-16T01:54:01.797Z,5.88
2023-05-16T01:56:29.728Z,5.85
2023-05-16T01:58:57.596Z,5.78
2023-05-16T02:01:24.972Z,6.57
2023-05-16T02:03:52.529Z,5.88
2023-05-16T02:06:19.871Z,6.05
2023-05-16T02:08:47.256Z,6.75
2023-05-16T02:11:17.388Z,6.68
2023-05-16T02:13:47.998Z,6.75
2023-05-16T02:16:16.044Z,6.60
2023-05-16T02:18:46.343Z,7.10
2023-05-16T02:21:19.758Z,6.75
2023-05-16T02:23:55.180Z,6.10
2023-05-16T02:26:25.981Z,7.20
2023-05-16T02:28:56.500Z,7.10
2023-05-16T02:31:30.294Z,6.10
2023-05-16T02:34:01.689Z,7.28
2023-05-16T02:36:30.413Z,6.85
2023-05-16T02:38:58.099Z,7.28
2023-05-16T02:41:28.338Z,7.13
2023-05-16T02:43:58.237Z,6.80
2023-05-16T02:46:33.489Z,7.30
2023-05-16T02:49:05.016Z,7.68
2023-05-16T02:51:33.254Z,6.97
2023-05-16T02:54:06.064Z,7.55
2023-05-16T02:56:43.387Z,7.35
2023-05-16T02:59:14.834Z,7.53
2023-05-16T03:01:46.885Z,7.07
2023-05-16T03:04:14.879Z,6.55
2023-05-16T03:06:45.402Z,7.38
2023-05-16T03:09:18.875Z,7.35
2023-05-16T03:11:52.268Z,6.88
2023-05-16T03:14:22.312Z,7.10
2023-05-16T03:16:50.090Z,7.45
2023-05-16T03:19:27.322Z,7.75
2023-05-16T03:21:55.498Z,7.13
2023-05-16T03:24:42.542Z,7.75
2023-05-16T03:27:36.957Z,7.90
2023-05-16T03:30:04.875Z,8.07
2023-05-16T03:32:32.343Z,8.18
2023-05-16T03:34:59.816Z,8.25
2023-05-16T03:37:27.317Z,7.85
2023-05-16T03:39:54.752Z,8.05
2023-05-16T03:42:22.050Z,8.73
2023-05-16T03:44:49.479Z,8.10
2023-05-16T03:47:16.821Z,9.07
2023-05-16T03:49:44.209Z,8.00
2023-05-16T03:52:11.582Z,9.00
2023-05-16T03:54:38.867Z,8.90
2023-05-16T03:57:06.389Z,8.45
2023-05-16T03:59:34.620Z,8.90
2023-05-16T04:02:02.001Z,8.05
2023-05-16T04:04:29.430Z,9.15
2023-05-16T04:06:56.752Z,8.35
2023-05-16T04:09:24.053Z,8.75
2023-05-16T04:11:51.736Z,8.80
2023-05-16T04:14:19.053Z,9.02
2023-05-16T04:16:46.639Z,8.75
2023-05-16T04:19:14.145Z,9.55
2023-05-16T04:21:41.666Z,9.05
2023-05-16T04:24:08.997Z,9.38
2023-05-16T04:26:37.392Z,9.10
2023-05-16T04:29:04.749Z,9.43
2023-05-16T04:31:32.347Z,10.38
2023-05-16T04:33:59.910Z,9.60
2023-05-16T04:36:30.072Z,9.57
2023-05-16T04:38:57.773Z,9.63
2023-05-16T04:41:25.349Z,10.45
2023-05-16T04:43:53.689Z,9.88
2023-05-16T04:46:21.132Z,10.48
2023-05-16T04:48:48.512Z,9.98
2023-05-16T04:51:16.069Z,11.27
2023-05-16T04:53:43.535Z,10.18
2023-05-16T04:56:11.173Z,10.63
2023-05-16T04:58:39.243Z,11.95
2023-05-16T05:01:07.292Z,11.40
2023-05-16T05:03:36.001Z,10.15
2023-05-16T05:06:03.793Z,10.52
2023-05-16T05:08:31.151Z,12.13
2023-05-16T05:10:58.696Z,10.73
2023-05-16T05:13:26.168Z,11.65
2023-05-16T05:15:53.666Z,12.27
2023-05-16T05:18:21.008Z,11.68
2023-05-16T05:20:48.355Z,11.35
2023-05-16T05:23:15.755Z,11.50
2023-05-16T05:25:43.095Z,11.75
2023-05-16T05:28:10.403Z,11.50
2023-05-16T05:30:37.895Z,10.95
2023-05-16T05:33:05.468Z,11.25
2023-05-16T05:35:32.953Z,11.85
2023-05-16T05:38:00.486Z,11.85
2023-05-16T05:40:27.899Z,11.65
2023-05-16T05:42:55.210Z,11.82
2023-05-16T05:45:22.612Z,11.35
2023-05-16T05:47:49.986Z,11.50
2023-05-16T05:50:17.416Z,11.45
2023-05-16T05:52:44.814Z,12.38
2023-05-16T05:55:12.166Z,12.40
2023-05-16T05:57:39.741Z,12.85
2023-05-16T06:00:07.661Z,12.02
2023-05-16T06:02:35.965Z,11.95
2023-05-16T06:05:03.547Z,12.25
2023-05-16T06:07:30.936Z,12.13
2023-05-16T06:09:58.248Z,13.13
2023-05-16T06:12:25.550Z,12.90
2023-05-16T06:30:21.897Z,14.20
2023-05-16T06:32:49.570Z,14.15
2023-05-16T06:35:17.008Z,12.90
2023-05-16T06:37:44.348Z,13.00
2023-05-16T06:40:12.422Z,13.50
2023-05-16T06:42:42.761Z,13.27
2023-05-16T06:45:12.432Z,13.50
2023-05-16T06:47:39.816Z,14.25
2023-05-16T06:50:08.045Z,13.25
2023-05-16T06:52:35.428Z,13.90
2023-05-16T06:55:02.781Z,12.95
2023-05-16T06:57:30.269Z,13.30
2023-05-16T06:59:57.623Z,14.07
2023-05-16T07:02:26.188Z,13.32
2023-05-16T07:04:53.874Z,13.35
2023-05-16T07:07:23.271Z,14.00
2023-05-16T07:09:50.674Z,22.70
2023-05-16T07:12:18.347Z,17.80
2023-05-16T07:14:46.771Z,14.23
2023-05-16T07:17:14.177Z,14.70
2023-05-16T07:19:41.502Z,13.07
2023-05-16T07:22:08.950Z,14.05
2023-05-16T07:24:36.387Z,14.18
2023-05-16T07:27:03.896Z,13.52
2023-05-16T07:29:31.281Z,14.40
2023-05-16T07:31:58.741Z,13.00
2023-05-16T07:34:26.462Z,14.27
2023-05-16T07:36:53.897Z,14.75
2023-05-16T07:39:21.578Z,14.25
2023-05-16T07:41:48.911Z,13.85
2023-05-16T07:44:16.447Z,13.68
2023-05-16T07:46:45.204Z,14.60
2023-05-16T07:49:12.927Z,14.10
2023-05-16T07:51:40.455Z,13.20
2023-05-16T07:54:07.810Z,14.35
2023-05-16T07:56:35.172Z,13.60
2023-05-16T07:59:02.590Z,14.63
2023-05-16T08:01:29.989Z,14.40
2023-05-16T08:03:57.399Z,13.88
2023-05-16T08:06:25.285Z,14.77
2023-05-16T08:08:52.676Z,15.05
2023-05-16T08:11:22.504Z,16.05
2023-05-16T08:13:50.145Z,15.18
2023-05-16T08:16:17.701Z,16.55
2023-05-16T08:18:45.131Z,15.82
2023-05-16T08:21:14.175Z,15.38
2023-05-16T08:23:41.500Z,15.75
2023-05-16T08:26:08.841Z,16.30
2023-05-16T08:28:36.206Z,15.10
2023-05-16T08:31:03.900Z,15.77
2023-05-16T08:33:31.429Z,14.68
2023-05-16T08:35:59.326Z,15.05
2023-05-16T08:38:26.683Z,15.25
2023-05-16T08:40:54.066Z,16.15
2023-05-16T08:43:22.080Z,16.95
2023-05-16T08:45:49.615Z,18.95
2023-05-16T08:48:17.205Z,15.75
2023-05-16T08:50:44.662Z,15.70
2023-05-16T08:53:12.435Z,16.48
2023-05-16T08:55:40.242Z,18.10
2023-05-16T08:58:07.663Z,17.40
2023-05-16T09:00:35.171Z,15.88
2023-05-16T09:03:02.660Z,15.77
2023-05-16T09:05:30.442Z,16.08
2023-05-16T09:07:57.917Z,15.23
2023-05-16T09:10:25.458Z,16.25
2023-05-16T09:12:52.803Z,16.33
2023-05-16T09:15:21.615Z,16.33
2023-05-16T09:17:49.271Z,14.98
2023-05-16T09:20:18.539Z,16.30
2023-05-16T09:22:58.979Z,16.27
2023-05-16T09:25:30.929Z,16.25
2023-05-16T09:28:01.738Z,20.73
2023-05-16T09:30:31.534Z,18.00
2023-05-16T09:32:59.406Z,17.30
2023-05-16T09:37:57.311Z,17.23
2023-05-16T09:40:24.650Z,16.48
2023-05-16T09:43:05.757Z,17.15
2023-05-16T09:45:34.195Z,17.30
2023-05-16T09:48:06.521Z,14.10
2023-05-16T09:50:34.875Z,14.05
2023-05-16T09:53:02.727Z,10.30
2023-05-16T09:55:30.788Z,14.07
2023-05-16T09:57:58.188Z,13.65
2023-05-16T10:00:32.770Z,14.98
2023-05-16T10:03:04.846Z,14.32
2023-05-16T10:05:33.533Z,9.52
2023-05-16T10:08:01.416Z,13.70
2023-05-16T10:10:28.846Z,13.57
2023-05-16T10:12:56.566Z,9.48
2023-05-16T10:15:24.227Z,14.93
2023-05-16T10:17:54.630Z,13.43
2023-05-16T10:20:22.201Z,12.73
2023-05-16T10:22:49.612Z,13.88
2023-05-16T10:25:30.254Z,14.43
2023-05-16T10:27:58.348Z,14.20
2023-05-16T10:30:25.892Z,13.93
2023-05-16T10:32:53.453Z,15.10
2023-05-16T10:35:21.820Z,14.82
2023-05-16T10:37:49.725Z,15.43
2023-05-16T10:40:17.276Z,15.20
2023-05-16T10:42:55.851Z,15.10
2023-05-16T10:45:23.630Z,16.23
2023-05-16T10:47:55.818Z,15.68
2023-05-16T10:50:43.039Z,16.40
2023-05-16T10:53:22.722Z,17.17
2023-05-16T10:55:59.298Z,17.05
2023-05-16T10:58:39.145Z,16.90
2023-05-16T11:01:31.687Z,16.15
2023-05-16T11:04:04.894Z,17.52
2023-05-16T11:06:44.206Z,16.92
2023-05-16T11:09:17.423Z,17.42
2023-05-16T11:12:00.619Z,16.80
2023-05-16T11:14:29.245Z,19.40
2023-05-16T11:17:22.528Z,17.95
2023-05-16T11:19:51.429Z,20.08
2023-05-16T11:22:32.953Z,19.92
2023-05-16T11:25:07.258Z,20.60
2023-05-16T11:27:36.683Z,16.15
2023-05-16T11:30:06.877Z,82.60
2023-05-16T11:32:35.329Z,46.58
2023-05-16T11:35:04.117Z,20.85
2023-05-16T11:37:32.565Z,20.42
2023-05-16T11:40:01.553Z,22.13
2023-05-16T11:42:41.896Z,22.38
2023-05-16T11:45:16.138Z,22.58
2023-05-16T11:47:45.691Z,22.80
2023-05-16T11:50:14.464Z,23.60
2023-05-16T11:52:46.787Z,25.02
2023-05-16T11:55:21.497Z,23.48
2023-05-16T11:57:59.785Z,23.85
2023-05-16T12:00:27.425Z,24.33
2023-05-16T12:03:02.955Z,23.05
2023-05-16T12:05:32.016Z,25.83
2023-05-16T12:07:59.890Z,24.80
2023-05-16T12:10:27.640Z,24.42
2023-05-16T12:12:56.293Z,24.95
2023-05-16T12:15:23.664Z,25.20
2023-05-16T12:17:51.176Z,24.35
2023-05-16T12:20:18.687Z,24.05
2023-05-16T12:22:46.280Z,24.40
2023-05-16T12:25:26.376Z,22.67
2023-05-16T12:27:56.003Z,25.27
2023-05-16T12:30:24.842Z,24.67
2023-05-16T12:33:05.853Z,23.83
2023-05-16T12:35:35.504Z,24.25
2023-05-16T12:38:07.898Z,25.33
2023-05-16T12:40:37.395Z,37.25
2023-05-16T12:43:05.049Z,27.00
2023-05-16T12:45:35.346Z,26.35
2023-05-16T12:48:09.396Z,23.88
2023-05-16T12:50:37.018Z,23.75
2023-05-16T12:53:04.386Z,25.33
2023-05-16T12:55:32.697Z,24.70
2023-05-16T12:58:00.735Z,22.88
2023-05-16T13:00:28.423Z,23.15
2023-05-16T13:02:56.297Z,23.63
2023-05-16T13:05:23.744Z,25.95
2023-05-16T13:07:54.421Z,26.30
2023-05-16T13:10:21.835Z,26.33
2023-05-16T13:12:49.301Z,24.10
2023-05-16T13:15:16.863Z,25.75
2023-05-16T13:17:44.474Z,24.80
2023-05-16T13:20:15.512Z,25.50
2023-05-16T13:22:43.642Z,25.30
2023-05-16T13:25:11.461Z,24.65
2023-05-16T13:27:38.955Z,24.98
2023-05-16T13:30:07.450Z,25.60
2023-05-16T13:32:34.907Z,15.65
2023-05-16T13:35:04.044Z,12.43
2023-05-16T13:37:31.458Z,12.63
2023-05-16T13:39:58.979Z,13.43
2023-05-16T13:42:26.403Z,15.05
2023-05-16T13:44:53.760Z,15.02
2023-05-16T13:47:21.428Z,14.13
2023-05-16T13:49:48.881Z,13.73
2023-05-16T13:52:16.488Z,13.35
2023-05-16T13:54:44.106Z,12.43
2023-05-16T13:57:11.554Z,12.23
2023-05-16T14:02:10.097Z,11.75
2023-05-16T14:04:37.512Z,10.30
2023-05-16T14:07:05.340Z,10.93
2023-05-16T14:09:35.086Z,10.68
2023-05-16T14:12:05.571Z,10.18
2023-05-16T14:14:36.499Z,10.18
2023-05-16T14:17:04.288Z,9.85
2023-05-16T14:19:31.905Z,9.57
2023-05-16T14:21:59.406Z,10.05
2023-05-16T14:24:26.944Z,9.40
2023-05-16T14:26:58.071Z,8.80
2023-05-16T14:29:26.063Z,10.20
2023-05-16T14:31:53.700Z,10.88
2023-05-16T14:34:22.423Z,10.95
2023-05-16T14:36:50.902Z,11.88
2023-05-16T14:39:18.560Z,10.93
2023-05-16T14:41:46.529Z,11.50
2023-05-16T14:44:13.903Z,11.70
2023-05-16T14:46:41.477Z,12.20
2023-05-16T14:49:09.615Z,11.43
2023-05-16T14:51:37.250Z,103.15
2023-05-16T14:54:05.625Z,19.38
2023-05-16T14:56:33.825Z,12.07
2023-05-16T14:59:01.664Z,11.70
2023-05-16T15:01:29.103Z,11.30
2023-05-16T15:03:56.861Z,12.13
2023-05-16T15:06:27.486Z,12.00
2023-05-16T15:08:55.094Z,12.18
2023-05-16T15:11:22.854Z,11.15
2023-05-16T15:13:50.683Z,12.85
2023-05-16T15:16:18.273Z,11.85
2023-05-16T15:18:45.847Z,12.40
2023-05-16T15:21:13.255Z,11.93
2023-05-16T15:23:41.612Z,15.07
2023-05-16T15:26:09.035Z,13.63
2023-05-16T15:28:36.410Z,11.55
2023-05-16T15:31:05.525Z,11.52
2023-05-16T15:33:32.930Z,11.63
2023-05-16T15:36:00.802Z,11.63
2023-05-16T15:38:33.194Z,11.63
2023-05-16T15:41:16.497Z,11.05
2023-05-16T15:43:47.966Z,11.10
2023-05-16T15:46:15.644Z,11.57
2023-05-16T15:48:44.808Z,11.30
2023-05-16T15:51:13.117Z,11.13
2023-05-16T15:53:40.541Z,10.80
2023-05-16T15:56:09.041Z,10.98
2023-05-16T15:58:36.632Z,11.40
2023-05-16T16:01:04.168Z,11.68
2023-05-16T16:03:32.818Z,12.07
2023-05-16T16:06:00.210Z,11.95
2023-05-16T16:08:27.680Z,12.65
2023-05-16T16:10:55.065Z,15.50
2023-05-16T16:13:24.172Z,13.18
2023-05-16T16:15:52.048Z,13.00
2023-05-16T16:18:19.570Z,14.10
2023-05-16T16:20:47.088Z,14.68
2023-05-16T16:23:14.628Z,14.32
2023-05-16T16:25:42.060Z,14.95
2023-05-16T16:28:09.511Z,13.75
2023-05-16T16:30:36.945Z,15.70
2023-05-16T16:33:04.475Z,15.35
2023-05-16T16:35:32.063Z,15.55
2023-05-16T16:38:06.845Z,15.57
2023-05-16T16:40:35.086Z,16.38
2023-05-16T16:43:02.490Z,15.43
2023-05-16T16:45:30.136Z,16.25
2023-05-16T16:47:58.053Z,17.40
2023-05-16T16:50:25.688Z,16.65
2023-05-16T16:52:53.998Z,16.83
2023-05-16T16:55:21.504Z,17.23
2023-05-16T16:57:48.843Z,18.45
2023-05-16T17:00:17.285Z,16.33
2023-05-16T17:02:44.899Z,16.50
2023-05-16T17:05:12.512Z,16.65
2023-05-16T17:07:39.975Z,16.33
2023-05-16T17:10:07.964Z,17.33
2023-05-16T17:12:36.022Z,16.80
2023-05-16T17:15:03.672Z,17.92
2023-05-16T17:17:31.096Z,18.30
2023-05-16T17:19:58.572Z,17.27
2023-05-16T17:22:26.487Z,18.23
2023-05-16T17:24:54.007Z,17.42
2023-05-16T17:27:21.371Z,18.85
2023-05-16T17:29:48.721Z,18.77
2023-05-16T17:32:17.348Z,17.55
2023-05-16T17:34:44.739Z,18.38
2023-05-16T17:37:12.128Z,17.70
2023-05-16T17:39:39.469Z,19.65
2023-05-16T17:42:07.661Z,18.45
2023-05-16T17:44:36.214Z,18.15
2023-05-16T17:47:04.087Z,17.42
2023-05-16T17:49:31.574Z,17.85
2023-05-16T17:51:59.153Z,17.38
2023-05-16T17:54:30.567Z,17.13
2023-05-16T17:56:58.472Z,16.60
2023-05-16T17:59:27.339Z,16.95
2023-05-16T18:01:57.387Z,15.13
2023-05-16T18:04:26.097Z,15.75
2023-05-16T18:06:54.290Z,15.88
2023-05-16T18:09:21.819Z,16.17
2023-05-16T18:11:49.960Z,15.80
2023-05-16T18:14:17.452Z,15.30
2023-05-16T18:16:44.892Z,16.30
2023-05-16T18:19:12.558Z,15.68
2023-05-16T18:21:40.120Z,16.55
2023-05-16T18:24:12.702Z,16.15
2023-05-16T18:26:40.214Z,15.90
2023-05-16T18:29:08.749Z,16.08
2023-05-16T18:31:38.096Z,16.40
2023-05-16T18:34:05.532Z,16.67
2023-05-16T18:36:32.896Z,15.32
2023-05-16T18:39:00.335Z,15.60
2023-05-16T18:41:27.756Z,14.45
2023-05-16T18:43:55.118Z,14.93
2023-05-16T18:46:22.531Z,15.05
2023-05-16T18:48:50.024Z,14.05
2023-05-16T18:51:17.474Z,12.63
2023-05-16T18:53:44.902Z,12.27
2023-05-16T18:56:12.369Z,11.77
2023-05-16T18:58:39.764Z,12.23
2023-05-16T19:01:07.106Z,11.95
2023-05-16T19:03:59.427Z,11.27
2023-05-16T19:06:26.965Z,10.98
2023-05-16T19:08:54.391Z,10.68
2023-05-16T19:11:22.670Z,10.27
2023-05-16T19:13:50.054Z,10.93
2023-05-16T19:16:17.555Z,10.82
2023-05-16T19:18:47.392Z,10.88
2023-05-16T19:21:15.740Z,10.40
2023-05-16T19:23:43.169Z,10.68
2023-05-16T19:26:10.542Z,10.65
2023-05-16T19:28:37.960Z,10.65
2023-05-16T19:31:06.632Z,9.90
2023-05-16T19:33:34.003Z,9.60
2023-05-16T19:36:04.308Z,9.57
2023-05-16T19:38:31.709Z,9.85
2023-05-16T19:40:59.901Z,9.80
2023-05-16T19:43:27.335Z,10.00
2023-05-16T19:45:54.704Z,11.15
2023-05-16T19:48:22.224Z,9.45
2023-05-16T19:50:51.642Z,8.70
2023-05-16T19:53:19.078Z,9.38
2023-05-16T19:55:47.896Z,9.40
2023-05-16T19:58:16.145Z,9.63
2023-05-16T20:00:43.539Z,8.48
2023-05-16T20:03:11.502Z,9.55
2023-05-16T20:05:39.013Z,8.80
2023-05-16T20:08:06.406Z,8.23
2023-05-16T20:10:35.202Z,8.90
2023-05-16T20:13:02.576Z,8.65
2023-05-16T20:15:30.137Z,8.55
2023-05-16T20:17:57.637Z,8.13
2023-05-16T20:20:25.047Z,8.70
2023-05-16T20:22:52.440Z,8.95
2023-05-16T20:25:19.776Z,8.60
2023-05-16T20:27:47.185Z,8.93
2023-05-16T20:30:14.760Z,8.23
2023-05-16T20:32:42.171Z,8.15
2023-05-16T20:35:11.241Z,8.55
2023-05-16T20:37:38.726Z,9.05
2023-05-16T20:40:07.127Z,8.23
2023-05-16T20:42:34.774Z,8.02
2023-05-16T20:45:02.316Z,8.40
2023-05-16T20:47:29.689Z,8.40
2023-05-16T20:49:57.076Z,8.23
2023-05-16T20:52:24.450Z,8.05
2023-05-16T20:54:51.908Z,8.32
2023-05-16T20:57:19.270Z,7.43
2023-05-16T20:59:46.670Z,7.85
2023-05-16T21:02:14.074Z,7.82
2023-05-16T21:04:41.511Z,7.65
2023-05-16T21:07:11.224Z,7.63
2023-05-16T21:09:39.724Z,7.18
2023-05-16T21:12:07.505Z,7.22
2023-05-16T21:14:34.932Z,6.32
2023-05-16T21:17:02.248Z,6.97
2023-05-16T21:19:34.093Z,6.65
2023-05-16T21:22:03.882Z,6.03
2023-05-16T21:24:35.127Z,6.28
2023-05-16T21:27:03.468Z,5.90
2023-05-16T21:29:30.912Z,5.30
2023-05-16T21:31:58.772Z,5.35
2023-05-16T21:34:26.280Z,5.95
2023-05-16T21:36:53.903Z,5.60
2023-05-16T21:39:21.263Z,5.70
2023-05-16T21:41:48.649Z,5.20
2023-05-16T21:44:18.528Z,5.05
2023-05-16T21:46:46.066Z,4.88
2023-05-16T21:49:14.162Z,4.85
2023-05-16T21:51:41.537Z,4.70
2023-05-16T21:54:09.057Z,5.03
2023-05-16T21:56:36.595Z,4.60
2023-05-16T21:59:04.033Z,4.43
2023-05-16T22:01:31.403Z,4.10
2023-05-16T22:03:58.992Z,4.38
2023-05-16T22:06:26.511Z,4.28
2023-05-16T22:08:54.939Z,3.83
2023-05-16T22:11:22.382Z,4.00
2023-05-16T22:13:50.809Z,4.20
2023-05-16T22:16:18.738Z,3.95
2023-05-16T22:18:46.353Z,3.85
2023-05-16T22:21:16.173Z,3.33
2023-05-16T22:23:43.583Z,3.70
2023-05-16T22:26:11.141Z,3.90
2023-05-16T22:28:38.513Z,3.53
2023-05-16T22:31:05.932Z,3.40
2023-05-16T22:33:33.477Z,3.72
2023-05-16T22:36:03.105Z,3.63
2023-05-16T22:38:31.680Z,3.63
2023-05-16T22:40:59.240Z,3.38
2023-05-16T22:43:26.600Z,3.50
2023-05-16T22:45:54.054Z,3.40
2023-05-16T22:48:21.498Z,3.30
2023-05-16T22:50:48.863Z,3.13
2023-05-16T22:53:16.235Z,3.28
2023-05-16T22:55:43.581Z,3.40
2023-05-16T22:58:10.916Z,3.30
2023-05-16T23:00:38.257Z,3.40
2023-05-16T23:03:06.398Z,3.40
2023-05-16T23:05:34.007Z,3.20
2023-05-16T23:08:02.486Z,3.38
2023-05-16T23:10:30.097Z,3.40
2023-05-16T23:12:57.530Z,2.97
2023-05-16T23:15:24.895Z,2.80
2023-05-16T23:17:52.321Z,3.45
2023-05-16T23:20:19.754Z,3.17
2023-05-16T23:22:47.133Z,3.10
2023-05-16T23:25:14.549Z,3.40
2023-05-16T23:27:41.884Z,3.22
2023-05-16T23:30:09.854Z,2.78
2023-05-16T23:32:37.233Z,2.83
2023-05-16T23:35:05.135Z,2.72
2023-05-16T23:37:32.537Z,2.85
2023-05-16T23:39:59.971Z,2.95
2023-05-16T23:42:27.354Z,2.88
2023-05-16T23:44:54.736Z,3.17
2023-05-16T23:47:22.507Z,3.05
2023-05-16T23:49:49.937Z,2.65
2023-05-16T23:52:17.317Z,3.03
2023-05-16T23:54:45.522Z,3.10
2023-05-16T23:57:12.884Z,2.38
2023-05-16T23:59:41.067Z,2.88
